createdAt,value
2018-09-22T00:00:07.248Z,2.57
2018-09-22T00:02:36.307Z,2.07
2018-09-22T00:05:05.389Z,2.23
2018-09-22T00:07:34.220Z,2.20
2018-09-22T00:10:03.464Z,2.03
2018-09-22T00:12:33.003Z,2.20
2018-09-22T00:15:02.316Z,1.90
2018-09-22T00:17:31.294Z,1.97
2018-09-22T00:20:00.675Z,2.40
2018-09-22T00:22:30.031Z,2.47
2018-09-22T00:24:59.140Z,2.53
2018-09-22T00:27:28.202Z,2.07
2018-09-22T00:29:57.474Z,2.33
2018-09-22T00:32:26.482Z,1.80
2018-09-22T00:34:55.721Z,2.57
2018-09-22T00:37:24.736Z,2.83
2018-09-22T00:39:54.036Z,1.97
2018-09-22T00:42:23.062Z,2.07
2018-09-22T00:44:52.118Z,1.70
2018-09-22T00:47:21.505Z,2.23
2018-09-22T00:49:50.527Z,1.97
2018-09-22T00:52:19.524Z,1.87
2018-09-22T00:54:48.509Z,1.90
2018-09-22T00:57:17.518Z,2.37
2018-09-22T00:59:46.673Z,1.70
2018-09-22T01:02:16.082Z,1.83
2018-09-22T01:04:45.088Z,2.27
2018-09-22T01:07:14.222Z,1.70
2018-09-22T01:09:43.074Z,1.97
2018-09-22T01:12:12.510Z,1.93
2018-09-22T01:14:41.672Z,1.97
2018-09-22T01:17:10.666Z,2.10
2018-09-22T01:19:39.754Z,1.77
2018-09-22T01:22:08.664Z,1.70
2018-09-22T01:24:37.654Z,1.80
2018-09-22T01:27:06.739Z,1.90
2018-09-22T01:29:35.705Z,1.70
2018-09-22T01:32:04.694Z,1.53
2018-09-22T01:34:34.095Z,1.80
2018-09-22T01:37:02.937Z,1.73
2018-09-22T01:39:32.336Z,1.70
2018-09-22T01:42:01.337Z,1.90
2018-09-22T01:44:30.361Z,1.87
2018-09-22T01:46:59.245Z,1.40
2018-09-22T01:49:28.233Z,1.50
2018-09-22T01:51:57.324Z,1.73
2018-09-22T01:54:26.404Z,1.47
2018-09-22T01:56:55.648Z,1.53
2018-09-22T01:59:24.593Z,1.90
2018-09-22T02:01:53.513Z,1.97
2018-09-22T02:04:22.673Z,2.07
2018-09-22T02:06:52.081Z,1.50
2018-09-22T02:09:21.244Z,1.90
2018-09-22T02:11:50.438Z,1.60
2018-09-22T02:14:19.501Z,1.67
2018-09-22T02:16:48.541Z,1.63
2018-09-22T02:19:17.573Z,1.43
2018-09-22T02:21:46.781Z,1.50
2018-09-22T02:24:16.075Z,1.53
2018-09-22T02:26:45.182Z,1.50
2018-09-22T02:29:14.440Z,1.60
2018-09-22T02:31:43.906Z,1.33
2018-09-22T02:34:13.902Z,1.30
2018-09-22T02:36:42.930Z,1.47
2018-09-22T02:39:12.511Z,1.50
2018-09-22T02:41:41.561Z,1.53
2018-09-22T02:44:10.744Z,1.77
2018-09-22T02:46:39.812Z,1.60
2018-09-22T02:49:08.858Z,1.17
2018-09-22T02:51:38.086Z,1.33
2018-09-22T02:54:07.261Z,1.03
2018-09-22T02:56:36.454Z,1.30
2018-09-22T02:59:07.090Z,1.23
2018-09-22T03:01:36.261Z,1.33
2018-09-22T03:04:05.731Z,1.30
2018-09-22T03:06:34.973Z,1.40
2018-09-22T03:09:04.825Z,1.10
2018-09-22T03:11:33.961Z,1.17
2018-09-22T03:14:03.360Z,1.53
2018-09-22T03:16:32.421Z,1.10
2018-09-22T03:19:01.606Z,1.23
2018-09-22T03:21:30.616Z,1.27
2018-09-22T03:23:59.645Z,1.23
2018-09-22T03:26:28.675Z,1.43
2018-09-22T03:28:57.948Z,1.50
2018-09-22T03:31:26.943Z,1.27
2018-09-22T03:33:56.048Z,1.50
2018-09-22T03:36:25.077Z,1.40
2018-09-22T03:38:54.489Z,1.30
2018-09-22T03:41:23.584Z,1.07
2018-09-22T03:43:53.089Z,1.30
2018-09-22T03:46:21.994Z,1.50
2018-09-22T03:48:51.452Z,1.60
2018-09-22T03:51:20.399Z,1.43
2018-09-22T03:53:49.285Z,1.70
2018-09-22T03:56:18.303Z,1.50
2018-09-22T03:58:47.392Z,1.40
2018-09-22T04:01:16.674Z,1.53
2018-09-22T04:03:45.709Z,1.30
2018-09-22T04:06:14.889Z,1.50
2018-09-22T04:08:43.971Z,1.70
2018-09-22T04:11:12.885Z,1.57
2018-09-22T04:13:42.149Z,1.40
2018-09-22T04:16:11.184Z,1.50
2018-09-22T04:18:40.194Z,1.70
2018-09-22T04:21:09.233Z,1.70
2018-09-22T04:23:38.113Z,1.90
2018-09-22T04:26:07.151Z,1.70
2018-09-22T04:28:36.257Z,2.03
2018-09-22T04:31:05.355Z,1.90
2018-09-22T04:33:34.551Z,2.03
2018-09-22T04:36:04.022Z,2.17
2018-09-22T04:38:33.441Z,1.60
2018-09-22T04:41:02.466Z,1.70
2018-09-22T04:43:31.406Z,2.20
2018-09-22T04:46:00.299Z,1.77
2018-09-22T04:48:29.634Z,2.30
2018-09-22T04:50:58.739Z,1.73
2018-09-22T04:53:27.765Z,1.87
2018-09-22T04:55:57.023Z,2.07
2018-09-22T04:58:26.037Z,2.07
2018-09-22T05:00:55.034Z,1.50
2018-09-22T05:03:24.537Z,2.40
2018-09-22T05:05:53.814Z,2.20
2018-09-22T05:08:23.200Z,2.03
2018-09-22T05:10:52.219Z,1.87
2018-09-22T05:13:21.186Z,2.27
2018-09-22T05:15:50.221Z,1.77
2018-09-22T05:18:19.270Z,1.80
2018-09-22T05:20:48.400Z,2.10
2018-09-22T05:23:17.767Z,2.00
2018-09-22T05:25:46.833Z,2.00
2018-09-22T05:28:16.261Z,1.90
2018-09-22T05:30:45.312Z,2.10
2018-09-22T05:33:14.708Z,2.50
2018-09-22T05:35:43.969Z,2.40
2018-09-22T05:38:12.871Z,2.37
2018-09-22T05:40:42.178Z,2.43
2018-09-22T05:43:11.169Z,2.10
2018-09-22T05:45:40.293Z,2.00
2018-09-22T05:48:09.206Z,2.00
2018-09-22T05:50:38.905Z,2.20
2018-09-22T05:53:08.186Z,2.20
2018-09-22T05:55:37.496Z,1.97
2018-09-22T05:58:07.120Z,2.23
2018-09-22T06:00:38.510Z,2.10
2018-09-22T06:03:08.634Z,2.10
2018-09-22T06:05:38.191Z,2.43
2018-09-22T06:08:07.661Z,1.83
2018-09-22T06:10:36.954Z,2.30
2018-09-22T06:13:06.090Z,2.90
2018-09-22T06:15:35.294Z,2.50
2018-09-22T06:18:04.292Z,2.53
2018-09-22T06:20:33.801Z,1.93
2018-09-22T06:23:02.821Z,2.00
2018-09-22T06:25:32.031Z,2.20
2018-09-22T06:28:01.145Z,1.83
2018-09-22T06:30:30.395Z,2.17
2018-09-22T06:32:59.414Z,1.63
2018-09-22T06:35:28.417Z,2.30
2018-09-22T06:37:57.381Z,1.77
2018-09-22T06:40:26.421Z,2.10
2018-09-22T06:42:55.708Z,1.90
2018-09-22T06:45:25.052Z,1.97
2018-09-22T06:47:54.305Z,1.60
2018-09-22T06:50:23.521Z,2.13
2018-09-22T06:52:52.629Z,2.10
2018-09-22T06:55:22.110Z,1.60
2018-09-22T06:57:51.177Z,1.47
2018-09-22T07:00:20.778Z,1.70
2018-09-22T07:02:49.818Z,1.53
2018-09-22T07:05:18.989Z,1.53
2018-09-22T07:07:48.455Z,1.47
2018-09-22T07:10:18.150Z,1.70
2018-09-22T07:12:47.374Z,1.80
2018-09-22T07:15:17.387Z,1.57
2018-09-22T07:17:46.602Z,1.70
2018-09-22T07:20:15.849Z,1.33
2018-09-22T07:22:50.241Z,1.50
2018-09-22T07:25:19.299Z,1.37
2018-09-22T07:27:48.556Z,1.60
2018-09-22T07:30:18.003Z,1.57
2018-09-22T07:32:47.015Z,1.57
2018-09-22T07:35:16.436Z,1.60
2018-09-22T07:37:45.865Z,1.70
2018-09-22T07:40:15.521Z,1.50
2018-09-22T07:42:44.570Z,1.60
2018-09-22T07:45:14.113Z,1.40
2018-09-22T07:47:43.297Z,1.97
2018-09-22T07:50:12.673Z,1.63
2018-09-22T07:52:43.205Z,1.60
2018-09-22T07:55:12.121Z,1.33
2018-09-22T07:57:41.240Z,1.37
2018-09-22T08:00:10.548Z,1.17
2018-09-22T08:02:40.018Z,1.40
2018-09-22T08:05:09.211Z,1.40
2018-09-22T08:07:38.350Z,1.40
2018-09-22T08:10:07.405Z,1.77
2018-09-22T08:12:36.442Z,1.30
2018-09-22T08:15:05.843Z,1.30
2018-09-22T08:17:34.886Z,1.50
2018-09-22T08:20:04.308Z,1.57
2018-09-22T08:22:34.259Z,1.60
2018-09-22T08:25:05.415Z,1.83
2018-09-22T08:27:34.759Z,1.70
2018-09-22T08:30:04.258Z,1.70
2018-09-22T08:32:33.845Z,1.37
2018-09-22T08:35:03.114Z,1.53
2018-09-22T08:37:32.213Z,2.00
2018-09-22T08:40:02.122Z,2.30
2018-09-22T08:42:31.249Z,2.37
2018-09-22T08:45:00.756Z,1.40
2018-09-22T08:47:29.881Z,2.23
2018-09-22T08:49:59.214Z,2.23
2018-09-22T08:52:28.206Z,2.33
2018-09-22T08:54:57.303Z,2.60
2018-09-22T08:57:26.719Z,2.10
2018-09-22T08:59:56.401Z,1.70
2018-09-22T09:02:25.673Z,2.20
2018-09-22T09:04:54.854Z,1.70
2018-09-22T09:07:24.428Z,1.93
2018-09-22T09:09:53.612Z,1.30
2018-09-22T09:12:22.629Z,1.43
2018-09-22T09:14:51.729Z,1.30
2018-09-22T09:17:20.581Z,1.30
2018-09-22T09:19:49.724Z,1.20
2018-09-22T09:22:19.152Z,1.30
2018-09-22T09:24:48.167Z,1.60
2018-09-22T09:27:17.385Z,1.40
2018-09-22T09:29:47.053Z,2.40
2018-09-22T09:32:17.598Z,1.67
2018-09-22T09:34:47.453Z,1.30
2018-09-22T09:37:16.549Z,2.33
2018-09-22T09:39:45.837Z,1.90
2018-09-22T09:42:14.885Z,2.40
2018-09-22T09:44:44.825Z,1.73
2018-09-22T09:47:14.680Z,1.50
2018-09-22T09:49:44.125Z,1.50
2018-09-22T09:52:13.318Z,2.83
2018-09-22T09:54:42.641Z,1.73
2018-09-22T09:57:11.645Z,2.70
2018-09-22T09:59:41.050Z,3.00
2018-09-22T10:02:11.567Z,3.03
2018-09-22T10:04:40.847Z,1.87
2018-09-22T10:07:10.049Z,2.07
2018-09-22T10:09:39.240Z,2.50
2018-09-22T10:12:08.618Z,1.80
2018-09-22T10:14:37.611Z,2.17
2018-09-22T10:17:06.796Z,3.07
2018-09-22T10:19:36.199Z,3.50
2018-09-22T10:22:05.189Z,4.50
2018-09-22T10:24:34.762Z,4.10
2018-09-22T10:27:04.145Z,3.70
2018-09-22T10:29:33.142Z,3.40
2018-09-22T10:32:02.320Z,2.43
2018-09-22T10:34:32.369Z,2.80
2018-09-22T10:37:01.509Z,2.57
2018-09-22T10:39:30.729Z,2.40
2018-09-22T10:42:00.223Z,2.70
2018-09-22T10:44:29.174Z,3.23
2018-09-22T10:46:58.316Z,3.40
2018-09-22T10:49:27.215Z,3.07
2018-09-22T10:51:56.175Z,2.90
2018-09-22T10:54:25.294Z,3.57
2018-09-22T10:56:54.239Z,3.37
2018-09-22T10:59:23.258Z,3.50
2018-09-22T11:01:52.222Z,3.13
2018-09-22T11:04:21.451Z,2.73
2018-09-22T11:06:50.748Z,2.30
2018-09-22T11:09:19.793Z,2.20
2018-09-22T11:11:48.957Z,2.10
2018-09-22T11:14:18.321Z,1.80
2018-09-22T11:16:48.553Z,2.33
2018-09-22T11:19:18.861Z,1.90
2018-09-22T11:21:47.818Z,2.00
2018-09-22T11:24:17.086Z,1.87
2018-09-22T11:26:46.420Z,1.90
2018-09-22T11:29:15.377Z,2.37
2018-09-22T11:31:44.472Z,2.37
2018-09-22T11:34:13.642Z,2.43
2018-09-22T11:36:44.132Z,2.07
2018-09-22T11:39:13.606Z,2.63
2018-09-22T11:41:42.873Z,2.80
2018-09-22T11:44:12.925Z,2.37
2018-09-22T11:46:42.421Z,1.73
2018-09-22T11:49:11.976Z,2.07
2018-09-22T11:51:41.100Z,1.50
2018-09-22T11:54:10.670Z,1.97
2018-09-22T11:56:39.689Z,1.90
2018-09-22T11:59:09.068Z,1.60
2018-09-22T12:01:38.145Z,1.67
2018-09-22T12:04:07.400Z,1.63
2018-09-22T12:06:36.517Z,1.70
2018-09-22T12:09:16.304Z,1.80
2018-09-22T12:11:45.486Z,1.73
2018-09-22T12:14:14.748Z,1.80
2018-09-22T12:16:43.950Z,1.57
2018-09-22T12:19:13.434Z,1.53
2018-09-22T12:21:42.684Z,1.33
2018-09-22T12:24:14.129Z,1.30
2018-09-22T12:26:43.419Z,1.50
2018-09-22T12:29:13.282Z,1.50
2018-09-22T12:31:42.939Z,1.80
2018-09-22T12:34:12.135Z,1.40
2018-09-22T12:36:41.255Z,1.63
2018-09-22T12:39:11.577Z,1.50
2018-09-22T12:41:40.985Z,1.70
2018-09-22T12:44:10.199Z,1.67
2018-09-22T12:46:39.568Z,1.57
2018-09-22T12:49:08.677Z,1.60
2018-09-22T12:51:38.041Z,1.47
2018-09-22T12:54:07.221Z,1.77
2018-09-22T12:56:36.378Z,1.93
2018-09-22T12:59:05.329Z,1.53
2018-09-22T13:01:34.522Z,1.47
2018-09-22T13:04:03.748Z,1.53
2018-09-22T13:06:32.914Z,1.77
2018-09-22T13:09:02.138Z,1.53
2018-09-22T13:11:31.196Z,1.80
2018-09-22T13:14:00.253Z,1.60
2018-09-22T13:16:29.191Z,1.40
2018-09-22T13:18:58.730Z,1.53
2018-09-22T13:21:27.814Z,1.20
2018-09-22T13:23:57.012Z,1.57
2018-09-22T13:26:26.041Z,1.60
2018-09-22T13:28:55.162Z,1.43
2018-09-22T13:31:24.854Z,1.40
2018-09-22T13:33:54.021Z,1.37
2018-09-22T13:36:23.399Z,1.27
2018-09-22T13:38:52.632Z,1.40
2018-09-22T13:41:22.058Z,1.47
2018-09-22T13:43:51.201Z,1.30
2018-09-22T13:46:20.403Z,1.30
2018-09-22T13:48:49.704Z,1.30
2018-09-22T13:51:18.825Z,1.17
2018-09-22T13:53:47.994Z,1.30
2018-09-22T13:56:17.433Z,1.40
2018-09-22T13:58:46.860Z,1.20
2018-09-22T14:01:18.411Z,1.50
2018-09-22T14:03:47.603Z,1.50
2018-09-22T14:06:16.871Z,1.33
2018-09-22T14:08:47.695Z,1.67
2018-09-22T14:11:18.639Z,1.60
2018-09-22T14:13:48.209Z,1.40
2018-09-22T14:16:17.972Z,1.40
2018-09-22T14:18:48.132Z,1.40
2018-09-22T14:21:17.543Z,1.67
2018-09-22T14:23:47.300Z,1.30
2018-09-22T14:26:17.400Z,1.60
2018-09-22T14:28:47.596Z,1.40
2018-09-22T14:31:16.651Z,1.50
2018-09-22T14:33:46.127Z,1.40
2018-09-22T14:36:15.101Z,1.70
2018-09-22T14:38:45.282Z,1.43
2018-09-22T14:41:15.042Z,1.30
2018-09-22T14:43:45.318Z,1.40
2018-09-22T14:46:14.897Z,1.30
2018-09-22T14:48:45.097Z,1.70
2018-09-22T14:51:14.586Z,1.47
2018-09-22T14:53:43.955Z,1.67
2018-09-22T14:56:13.122Z,1.60
2018-09-22T14:58:42.971Z,1.83
2018-09-22T15:01:12.655Z,1.40
2018-09-22T15:03:41.872Z,1.70
2018-09-22T15:06:11.169Z,1.83
2018-09-22T15:08:40.174Z,1.90
2018-09-22T15:11:09.521Z,1.33
2018-09-22T15:13:38.926Z,2.10
2018-09-22T15:16:08.132Z,1.50
2018-09-22T15:18:37.209Z,1.80
2018-09-22T15:21:07.369Z,1.50
2018-09-22T15:23:37.356Z,1.70
2018-09-22T15:26:06.773Z,1.77
2018-09-22T15:28:37.223Z,1.43
2018-09-22T15:31:06.399Z,1.67
2018-09-22T15:33:36.278Z,1.40
2018-09-22T15:36:05.507Z,1.70
2018-09-22T15:38:35.056Z,1.80
2018-09-22T15:41:04.030Z,1.73
2018-09-22T15:43:33.130Z,1.57
2018-09-22T15:46:02.349Z,1.50
2018-09-22T15:48:31.686Z,1.80
2018-09-22T15:51:00.853Z,1.80
2018-09-22T15:53:29.925Z,1.77
2018-09-22T15:55:59.512Z,1.80
2018-09-22T15:58:29.028Z,2.17
2018-09-22T16:00:58.406Z,1.77
2018-09-22T16:03:27.573Z,1.83
2018-09-22T16:05:56.857Z,1.83
2018-09-22T16:08:26.277Z,1.70
2018-09-22T16:10:55.322Z,1.87
2018-09-22T16:13:24.378Z,1.90
2018-09-22T16:15:53.501Z,1.97
2018-09-22T16:18:22.688Z,1.73
2018-09-22T16:20:51.605Z,1.67
2018-09-22T16:23:20.599Z,1.50
2018-09-22T16:25:49.982Z,1.93
2018-09-22T16:28:18.961Z,1.70
2018-09-22T16:30:48.215Z,1.67
2018-09-22T16:33:17.466Z,1.50
2018-09-22T16:35:46.562Z,1.97
2018-09-22T16:38:15.633Z,1.50
2018-09-22T16:40:45.233Z,1.57
2018-09-22T16:43:14.729Z,1.50
2018-09-22T16:45:43.819Z,1.90
2018-09-22T16:48:14.121Z,1.53
2018-09-22T16:50:43.293Z,1.53
2018-09-22T16:53:12.759Z,1.40
2018-09-22T16:55:42.073Z,1.60
2018-09-22T16:58:11.184Z,1.40
2018-09-22T17:00:40.307Z,1.47
2018-09-22T17:03:09.641Z,1.57
2018-09-22T17:05:38.708Z,1.57
2018-09-22T17:08:07.701Z,1.40
2018-09-22T17:10:36.998Z,1.73
2018-09-22T17:13:06.405Z,1.80
2018-09-22T17:15:35.685Z,1.70
2018-09-22T17:18:07.608Z,1.63
2018-09-22T17:20:37.685Z,1.33
2018-09-22T17:23:07.081Z,1.83
2018-09-22T17:25:36.570Z,1.70
2018-09-22T17:28:06.068Z,1.63
2018-09-22T17:30:35.514Z,1.40
2018-09-22T17:33:04.782Z,1.30
2018-09-22T17:35:33.774Z,1.70
2018-09-22T17:38:02.817Z,1.70
2018-09-22T17:40:32.795Z,1.60
2018-09-22T17:43:01.878Z,1.30
2018-09-22T17:45:30.966Z,1.67
2018-09-22T17:48:00.162Z,1.80
2018-09-22T17:50:29.188Z,1.70
2018-09-22T17:52:59.465Z,1.57
2018-09-22T17:55:28.691Z,1.57
2018-09-22T17:57:57.677Z,1.60
2018-09-22T18:00:26.848Z,1.60
2018-09-22T18:02:56.553Z,1.73
2018-09-22T18:05:25.960Z,1.60
2018-09-22T18:07:55.190Z,1.83
2018-09-22T18:10:25.110Z,1.40
2018-09-22T18:12:54.258Z,1.80
2018-09-22T18:15:23.453Z,1.80
2018-09-22T18:17:52.445Z,1.33
2018-09-22T18:20:21.849Z,1.70
2018-09-22T18:22:51.220Z,1.70
2018-09-22T18:25:20.373Z,1.63
2018-09-22T18:27:49.396Z,1.90
2018-09-22T18:30:18.669Z,2.23
2018-09-22T18:32:47.957Z,1.73
2018-09-22T18:35:17.884Z,1.77
2018-09-22T18:37:47.734Z,1.53
2018-09-22T18:40:16.965Z,1.43
2018-09-22T18:42:46.061Z,1.67
2018-09-22T18:45:15.109Z,1.70
2018-09-22T18:47:44.536Z,1.57
2018-09-22T18:50:14.145Z,1.50
2018-09-22T18:52:43.393Z,1.50
2018-09-22T18:55:12.943Z,1.40
2018-09-22T18:57:42.052Z,1.60
2018-09-22T19:00:11.897Z,1.20
2018-09-22T19:02:41.189Z,1.57
2018-09-22T19:05:10.326Z,1.53
2018-09-22T19:07:39.404Z,1.20
2018-09-22T19:10:08.494Z,1.30
2018-09-22T19:12:37.656Z,1.53
2018-09-22T19:15:13.055Z,1.10
2018-09-22T19:17:48.101Z,1.30
2018-09-22T19:20:24.201Z,1.47
2018-09-22T19:22:56.834Z,1.83
2018-09-22T19:25:28.311Z,1.70
2018-09-22T19:28:09.132Z,1.40
2018-09-22T19:30:44.443Z,2.07
2018-09-22T19:33:16.856Z,1.47
2018-09-22T19:35:51.170Z,1.53
2018-09-22T19:40:31.926Z,1.37
2018-09-22T19:43:20.157Z,1.40
2018-09-22T19:45:51.493Z,1.50
2018-09-22T19:48:39.234Z,1.43
2018-09-22T19:51:10.442Z,1.50
2018-09-22T19:53:41.346Z,1.40
2018-09-22T19:56:10.413Z,1.53
2018-09-22T19:58:39.497Z,1.17
2018-09-22T20:01:09.208Z,1.30
2018-09-22T20:03:38.438Z,1.40
2018-09-22T20:06:07.313Z,1.30
2018-09-22T20:08:36.396Z,1.63
2018-09-22T20:11:05.445Z,1.50
2018-09-22T20:13:34.433Z,1.60
2018-09-22T20:16:03.637Z,1.53
2018-09-22T20:18:32.710Z,1.98
2018-09-22T20:21:01.581Z,1.40
2018-09-22T20:23:30.738Z,1.63
2018-09-22T20:25:59.677Z,1.30
2018-09-22T20:28:28.691Z,1.53
2018-09-22T20:30:57.742Z,1.40
2018-09-22T20:33:26.966Z,1.50
2018-09-22T20:35:56.321Z,1.57
2018-09-22T20:38:25.301Z,2.27
2018-09-22T20:40:54.890Z,1.30
2018-09-22T20:43:23.863Z,1.40
2018-09-22T20:45:52.881Z,1.50
2018-09-22T20:48:21.841Z,1.40
2018-09-22T20:50:51.034Z,1.80
2018-09-22T20:53:20.266Z,1.80
2018-09-22T20:55:49.425Z,1.60
2018-09-22T20:58:18.407Z,1.20
2018-09-22T21:00:47.718Z,1.40
2018-09-22T21:03:16.755Z,1.60
2018-09-22T21:05:45.753Z,2.03
2018-09-22T21:08:15.057Z,1.47
2018-09-22T21:10:44.077Z,1.73
2018-09-22T21:13:13.705Z,1.50
2018-09-22T21:15:43.169Z,1.80
2018-09-22T21:18:12.379Z,1.60
2018-09-22T21:20:41.835Z,1.83
2018-09-22T21:23:10.948Z,1.60
2018-09-22T21:25:40.077Z,1.70
2018-09-22T21:28:09.383Z,1.60
2018-09-22T21:30:38.597Z,1.77
2018-09-22T21:33:08.072Z,1.60
2018-09-22T21:35:37.263Z,1.37
2018-09-22T21:38:06.588Z,1.73
2018-09-22T21:40:35.639Z,1.90
2018-09-22T21:43:05.886Z,1.43
2018-09-22T21:45:34.826Z,1.50
2018-09-22T21:48:03.801Z,1.63
2018-09-22T21:50:33.283Z,1.60
2018-09-22T21:53:03.031Z,1.77
2018-09-22T21:55:32.317Z,2.30
2018-09-22T21:58:01.254Z,1.50
2018-09-22T22:00:30.423Z,1.70
2018-09-22T22:02:59.571Z,1.57
2018-09-22T22:05:28.805Z,1.60
2018-09-22T22:07:58.537Z,1.93
2018-09-22T22:10:27.717Z,1.67
2018-09-22T22:12:57.006Z,1.40
2018-09-22T22:15:26.702Z,1.30
2018-09-22T22:17:55.733Z,1.60
2018-09-22T22:20:25.133Z,1.80
2018-09-22T22:22:54.782Z,1.60
2018-09-22T22:25:24.045Z,1.50
2018-09-22T22:27:53.317Z,1.50
2018-09-22T22:30:22.332Z,1.43
2018-09-22T22:32:51.573Z,1.70
2018-09-22T22:35:20.542Z,1.70
2018-09-22T22:37:49.783Z,1.50
2018-09-22T22:40:18.869Z,1.53
2018-09-22T22:42:48.105Z,1.20
2018-09-22T22:45:17.299Z,1.67
2018-09-22T22:47:46.482Z,1.93
2018-09-22T22:50:15.418Z,1.70
2018-09-22T22:52:44.502Z,1.43
2018-09-22T22:55:13.649Z,1.60
2018-09-22T22:57:42.833Z,1.63
2018-09-22T23:00:12.710Z,1.80
2018-09-22T23:02:41.541Z,1.40
2018-09-22T23:05:10.508Z,2.00
2018-09-22T23:07:39.699Z,1.80
2018-09-22T23:10:08.933Z,1.87
2018-09-22T23:12:38.066Z,1.70
2018-09-22T23:15:07.577Z,1.90
2018-09-22T23:17:36.573Z,1.90
2018-09-22T23:20:05.925Z,1.87
2018-09-22T23:22:35.473Z,1.57
2018-09-22T23:25:04.590Z,1.43
2018-09-22T23:27:33.774Z,1.50
2018-09-22T23:30:02.836Z,1.83
2018-09-22T23:32:31.924Z,1.77
2018-09-22T23:35:01.017Z,1.70
2018-09-22T23:37:30.068Z,1.77
2018-09-22T23:39:58.955Z,1.90
2018-09-22T23:42:28.673Z,2.00
2018-09-22T23:44:58.481Z,1.40
2018-09-22T23:47:27.765Z,1.97
2018-09-22T23:49:57.178Z,1.60
2018-09-22T23:52:26.796Z,2.10
2018-09-22T23:54:55.628Z,1.90
2018-09-22T23:57:24.788Z,2.10
2018-09-22T23:59:53.781Z,2.10
